Terminal Aerodrome Forecast
Issued by NWS

Home | Current Version | Previous Version | Text Only | Print | Product List | Glossary On
Versions: 1 2 3 4 5 6 7 8 9 10 11 12 13 14 15
000
FTUS46 KSTO 240539
TAFMHR
TAF
KMHR 240539Z 2406/2506 13006KT P6SM OVC080
     FM241400 14010KT P6SM -RA OVC050
     FM241900 15015G25KT 4SM RA OVC020
     FM250000 14012KT 5SM -RA BR OVC010
      AMD NOT SKED=

USA.gov is the U.S. government's official web portal to all federal, state and local government web resources and services.